Time;durP1;ratioP1;P1;durP2;ratioP2;P2;SDS_P1;SDS_P2;PMS_P1;PMS_P2;Temp;Humidity;BMP_temperature;BMP_pressure;BME280_temperature;BME280_humidity;BME280_pressure;Samples;Min_cycle;Max_cycle;Signal;HPM_P1;HPM_P2
2023/02/22 00:04:48;;;;;;;9.82;4.82;;;;;;;7.29;65.99;100328.97;12601121;23;20034;-61
2023/02/22 00:09:50;;;;;;;13.50;5.13;;;;;;;7.28;66.14;100332.63;12573424;23;20083;-63
2023/02/22 00:14:51;;;;;;;8.35;4.40;;;;;;;7.24;66.46;100327.75;12604968;23;20027;-63
2023/02/22 00:19:53;;;;;;;10.65;4.97;;;;;;;7.17;66.98;100319.53;12599290;23;20026;-62
2023/02/22 00:24:56;;;;;;;11.93;5.95;;;;;;;7.17;66.28;100306.16;12599546;23;20053;-63
2023/02/22 00:29:57;;;;;;;10.32;5.28;;;;;;;7.14;66.31;100307.28;12603540;23;20018;-63
2023/02/22 00:34:59;;;;;;;11.77;6.07;;;;;;;7.03;66.93;100320.03;12599287;23;20026;-62
2023/02/22 00:40:00;;;;;;;11.32;6.32;;;;;;;7.05;66.77;100315.38;12602213;23;20022;-63
2023/02/22 00:45:04;;;;;;;14.18;6.22;;;;;;;7.07;67.00;100310.72;12660794;23;20093;-63
2023/02/22 00:50:05;;;;;;;11.77;6.03;;;;;;;6.98;67.19;100303.66;12660312;23;20022;-62
2023/02/22 00:55:09;;;;;;;12.25;6.80;;;;;;;6.88;67.12;100293.88;12658767;23;20018;-64
2023/02/22 01:00:18;;;;;;;10.73;5.60;;;;;;;6.90;67.35;100288.38;12659763;23;20021;-62
2023/02/22 01:05:22;;;;;;;16.70;7.82;;;;;;;6.87;67.46;100286.88;12660215;23;20030;-63
2023/02/22 01:10:27;;;;;;;16.25;8.23;;;;;;;6.80;67.34;100285.78;12658438;23;20038;-63
2023/02/22 01:15:29;;;;;;;14.68;7.30;;;;;;;6.81;67.42;100282.09;12659185;23;20037;-62
2023/02/22 01:20:31;;;;;;;12.40;5.72;;;;;;;6.85;67.64;100279.97;12658661;23;20620;-63
2023/02/22 01:25:34;;;;;;;12.20;6.20;;;;;;;6.82;67.89;100280.31;12671260;23;20025;-63
2023/02/22 01:30:35;;;;;;;15.68;6.40;;;;;;;6.75;66.70;100269.38;12658084;23;20115;-63
2023/02/22 01:35:39;;;;;;;12.48;6.03;;;;;;;6.71;67.06;100268.84;12658040;23;20104;-62
2023/02/22 01:40:42;;;;;;;16.70;6.88;;;;;;;6.66;67.46;100263.13;12659589;23;20093;-63
2023/02/22 01:45:56;;;;;;;16.63;7.82;;;;;;;6.52;67.64;100258.31;12657043;23;20026;-63
2023/02/22 01:51:10;;;;;;;16.23;7.28;;;;;;;6.45;68.18;100259.91;12657461;23;20461;-63
2023/02/22 01:56:12;;;;;;;15.88;7.88;;;;;;;6.48;67.37;100252.44;12657479;23;21074;-65
2023/02/22 02:01:16;;;;;;;18.42;8.50;;;;;;;6.45;67.79;100252.72;12666673;23;20357;-64
2023/02/22 02:06:19;;;;;;;15.48;8.32;;;;;;;6.46;67.64;100246.41;12675496;23;20025;-65
2023/02/22 02:11:24;;;;;;;16.55;7.50;;;;;;;6.38;67.79;100240.13;12701524;23;20030;-64
2023/02/22 02:16:35;;;;;;;16.13;6.82;;;;;;;6.35;67.98;100233.28;12699514;23;20026;-63
2023/02/22 02:21:55;;;;;;;16.48;8.88;;;;;;;6.18;67.88;100239.44;12699814;23;20121;-64
2023/02/22 02:27:17;;;;;;;21.90;10.60;;;;;;;6.11;67.62;100228.53;12703602;23;20017;-64
2023/02/22 02:32:43;;;;;;;20.58;11.15;;;;;;;6.11;67.97;100221.34;12709861;23;20540;-64
2023/02/22 02:38:11;;;;;;;25.67;13.48;;;;;;;6.07;67.71;100217.31;12705274;23;20030;-64
2023/02/22 02:43:28;;;;;;;15.20;7.65;;;;;;;6.10;67.74;100216.16;12707317;23;20017;-63
2023/02/22 02:48:33;;;;;;;19.33;8.68;;;;;;;6.07;68.13;100213.81;12704850;23;20017;-64
2023/02/22 02:53:38;;;;;;;25.33;10.85;;;;;;;5.99;67.59;100209.22;12708312;23;20021;-65
2023/02/22 02:58:48;;;;;;;21.02;10.90;;;;;;;5.84;68.54;100200.00;12716424;23;20090;-64
2023/02/22 03:04:14;;;;;;;24.40;11.25;;;;;;;5.89;67.82;100206.56;12700496;23;20029;-64
2023/02/22 03:09:42;;;;;;;22.63;11.00;;;;;;;5.90;67.67;100205.56;12699542;23;20024;-64
2023/02/22 03:15:04;;;;;;;19.98;9.63;;;;;;;5.92;67.98;100203.63;12700834;23;20034;-63
2023/02/22 03:20:20;;;;;;;19.33;10.35;;;;;;;5.92;67.97;100190.28;12701011;23;20029;-65
2023/02/22 03:25:32;;;;;;;24.38;10.73;;;;;;;5.80;68.11;100193.28;12698572;23;20026;-64
2023/02/22 03:30:38;;;;;;;25.00;12.25;;;;;;;5.85;68.39;100185.69;12671407;23;20125;-64
2023/02/22 03:35:47;;;;;;;26.67;12.35;;;;;;;5.93;68.26;100180.44;12700305;23;20176;-64
2023/02/22 03:40:53;;;;;;;25.98;13.10;;;;;;;5.99;67.80;100179.03;12701668;23;20060;-64
2023/02/22 03:45:55;;;;;;;24.38;12.18;;;;;;;6.05;68.26;100181.09;12699860;23;20026;-65
2023/02/22 03:50:57;;;;;;;24.65;12.77;;;;;;;6.08;68.90;100173.63;12703842;23;20025;-65
2023/02/22 03:56:00;;;;;;;26.85;12.23;;;;;;;6.07;68.42;100171.94;12705555;23;20014;-62
2023/02/22 04:01:02;;;;;;;20.58;11.50;;;;;;;6.13;69.00;100171.34;12705479;23;20013;-63
2023/02/22 04:06:04;;;;;;;17.58;10.75;;;;;;;6.11;68.54;100162.66;12710280;23;20032;-63
2023/02/22 04:11:05;;;;;;;16.85;9.23;;;;;;;6.08;68.64;100162.97;12703856;23;20334;-64
2023/02/22 04:16:07;;;;;;;15.02;9.20;;;;;;;5.99;69.07;100168.38;12707973;23;20025;-64
2023/02/22 04:21:08;;;;;;;20.02;9.65;;;;;;;5.89;68.98;100174.56;12706978;23;20029;-62
2023/02/22 04:26:10;;;;;;;20.80;9.20;;;;;;;5.89;68.73;100168.41;12700897;23;20029;-62
2023/02/22 04:31:11;;;;;;;67.20;10.57;;;;;;;5.85;69.15;100167.84;12698113;23;20021;-63
2023/02/22 04:36:14;;;;;;;76.32;11.23;;;;;;;5.78;69.45;100161.44;12698386;23;20045;-62
2023/02/22 04:41:17;;;;;;;108.55;11.88;;;;;;;5.63;69.08;100166.44;12707316;23;20038;-62
2023/02/22 04:46:19;;;;;;;104.63;11.15;;;;;;;5.47;69.43;100168.88;12676559;23;20017;-63
2023/02/22 04:51:20;;;;;;;84.88;10.70;;;;;;;5.53;69.35;100165.66;12690267;23;20002;-63
2023/02/22 04:56:22;;;;;;;171.70;14.05;;;;;;;5.47;69.66;100160.88;12715432;23;20032;-63
2023/02/22 05:01:23;;;;;;;59.92;9.40;;;;;;;5.44;69.37;100154.03;12707565;23;20010;-63
2023/02/22 05:06:24;;;;;;;72.93;10.70;;;;;;;5.34;69.59;100154.09;12688225;23;20024;-63
2023/02/22 05:11:26;;;;;;;29.67;9.35;;;;;;;5.29;69.68;100155.50;12692731;23;20041;-63
2023/02/22 05:16:27;;;;;;;42.05;10.27;;;;;;;5.33;69.50;100157.75;12685728;23;20037;-63
2023/02/22 05:21:29;;;;;;;126.93;13.90;;;;;;;5.38;69.81;100154.63;12681863;23;20018;-63
2023/02/22 05:26:30;;;;;;;55.38;10.88;;;;;;;5.32;69.63;100148.06;12679319;23;20173;-63
2023/02/22 05:31:31;;;;;;;49.97;10.10;;;;;;;5.38;69.44;100148.47;12680794;23;20026;-63
2023/02/22 05:36:33;;;;;;;31.42;9.88;;;;;;;5.43;69.65;100147.03;12676342;23;20538;-62
2023/02/22 05:41:35;;;;;;;18.67;8.93;;;;;;;5.45;69.57;100146.88;12678087;23;20089;-63
2023/02/22 05:46:36;;;;;;;52.42;9.25;;;;;;;5.43;69.51;100135.53;12673051;23;20030;-62
2023/02/22 05:51:38;;;;;;;123.82;14.00;;;;;;;5.40;69.95;100136.66;12674160;23;20025;-63
2023/02/22 05:56:39;;;;;;;169.88;15.15;;;;;;;5.43;69.59;100132.84;12672372;23;20022;-62
2023/02/22 06:01:41;;;;;;;113.38;12.65;;;;;;;5.40;69.61;100142.00;12680064;23;20022;-62
2023/02/22 06:06:42;;;;;;;66.45;11.10;;;;;;;5.32;70.31;100136.56;12675759;23;20070;-63
2023/02/22 06:11:44;;;;;;;44.90;10.85;;;;;;;5.29;70.29;100145.72;12685058;23;20045;-63
2023/02/22 06:16:51;;;;;;;110.97;13.88;;;;;;;5.28;70.79;100144.00;12665178;23;20034;-63
2023/02/22 06:21:55;;;;;;;48.17;10.70;;;;;;;5.29;69.95;100153.69;12666731;23;20116;-67
2023/02/22 06:26:59;;;;;;;71.28;12.35;;;;;;;5.40;70.10;100150.00;12664843;23;20468;-62
2023/02/22 06:32:01;;;;;;;162.55;15.43;;;;;;;5.46;70.39;100149.41;12682140;23;20053;-63
2023/02/22 06:37:02;;;;;;;142.93;17.88;;;;;;;5.52;70.55;100147.97;12685047;23;20081;-61
2023/02/22 06:42:04;;;;;;;363.25;22.67;;;;;;;5.54;69.95;100146.81;12688230;23;20017;-64
2023/02/22 06:47:06;;;;;;;169.60;16.88;;;;;;;5.61;70.70;100159.56;12663807;23;20104;-67
2023/02/22 06:52:08;;;;;;;341.40;19.30;;;;;;;5.61;70.33;100155.09;12693479;23;20018;-65
2023/02/22 06:57:10;;;;;;;216.38;20.20;;;;;;;5.70;70.41;100162.16;12689765;23;20049;-66
2023/02/22 07:02:12;;;;;;;92.38;12.35;;;;;;;5.76;70.20;100166.06;12679122;23;20033;-66
2023/02/22 07:07:13;;;;;;;46.25;11.85;;;;;;;5.75;70.92;100167.06;12680188;23;20033;-63
2023/02/22 07:12:14;;;;;;;26.92;11.00;;;;;;;5.90;70.62;100175.41;12702746;23;20008;-61
2023/02/22 07:17:16;;;;;;;31.75;10.30;;;;;;;5.89;70.68;100173.72;12728105;23;20017;-63
2023/02/22 07:27:35;;;;;;;31.73;10.05;;;;;;;6.05;70.91;100165.94;12631718;23;20042;-89
2023/02/22 07:32:37;;;;;;;21.02;8.80;;;;;;;6.05;69.98;100181.94;12607368;23;20030;-89
2023/02/22 07:37:39;;;;;;;49.17;9.63;;;;;;;6.06;70.11;100172.09;12588290;23;20107;-89
2023/02/22 07:42:58;;;;;;;43.83;11.50;;;;;;;6.09;70.29;100180.63;12546795;23;20070;-90
2023/02/22 07:48:03;;;;;;;20.27;10.20;;;;;;;6.27;70.71;100183.31;12608185;23;20534;-90
2023/02/22 07:53:10;;;;;;;41.05;10.07;;;;;;;6.41;70.03;100186.44;12606864;23;20041;-89
2023/02/22 07:58:31;;;;;;;67.10;9.85;;;;;;;6.41;70.49;100184.63;12605421;23;20015;-89
2023/02/22 08:03:35;;;;;;;23.08;10.02;;;;;;;6.54;70.29;100189.56;12620652;23;20029;-91
2023/02/22 08:08:37;;;;;;;92.40;11.65;;;;;;;6.66;70.32;100184.84;12548611;23;20034;-89
2023/02/22 08:13:45;;;;;;;64.80;10.55;;;;;;;6.78;70.88;100175.56;12578669;23;20011;-90
2023/02/22 08:18:49;;;;;;;43.22;13.45;;;;;;;6.91;70.38;100175.16;12582424;23;20010;-91
2023/02/22 08:23:53;;;;;;;40.78;10.95;;;;;;;7.08;70.54;100184.13;12590792;23;20022;-91
2023/02/22 08:28:56;;;;;;;86.57;12.63;;;;;;;7.10;70.67;100190.16;12563326;23;20059;-90
2023/02/22 08:33:59;;;;;;;185.00;14.65;;;;;;;7.12;70.53;100185.47;12556609;23;20062;-91
2023/02/22 08:39:01;;;;;;;38.03;9.95;;;;;;;7.22;70.83;100174.69;12551200;23;20022;-90
2023/02/22 08:44:08;;;;;;;60.38;10.23;;;;;;;7.40;70.57;100171.94;12560279;23;20107;-91
2023/02/22 08:54:26;;;;;;;47.83;9.80;;;;;;;7.57;71.24;100163.00;12680029;23;20016;-65
2023/02/22 08:59:28;;;;;;;29.55;9.65;;;;;;;7.75;70.30;100166.38;12712979;23;20098;-64
2023/02/22 09:04:29;;;;;;;32.88;9.68;;;;;;;7.77;70.65;100165.41;12715597;23;20006;-64
2023/02/22 09:09:30;;;;;;;17.45;8.13;;;;;;;7.99;70.14;100164.78;12717358;23;20006;-64
2023/02/22 09:14:32;;;;;;;20.08;7.78;;;;;;;8.26;70.05;100165.50;12717464;23;20061;-64
2023/02/22 09:19:34;;;;;;;14.07;7.55;;;;;;;8.40;70.45;100161.34;12717806;23;20062;-64
2023/02/22 09:24:35;;;;;;;20.30;8.02;;;;;;;8.62;69.74;100143.78;12717707;23;20078;-64
2023/02/22 09:29:38;;;;;;;12.85;7.35;;;;;;;8.71;70.19;100145.47;12717452;23;20029;-64
2023/02/22 09:34:44;;;;;;;13.45;7.78;;;;;;;8.86;69.74;100140.25;12719802;23;20018;-64
2023/02/22 09:39:46;;;;;;;13.60;7.60;;;;;;;9.04;69.39;100142.72;12719577;23;20058;-64
2023/02/22 09:55:56;;;;;;;13.10;6.40;;;;;;;9.24;70.04;100117.19;12828734;23;20043;-92
2023/02/22 10:01:31;;;;;;;13.55;7.10;;;;;;;9.59;69.43;100115.03;12789472;23;20021;-91
2023/02/22 10:06:53;;;;;;;14.23;7.53;;;;;;;9.93;69.00;100109.31;12795023;23;20096;-92
2023/02/22 10:12:11;;;;;;;12.15;7.43;;;;;;;10.26;68.71;100102.84;12801212;23;20013;-91
2023/02/22 10:17:29;;;;;;;12.65;8.25;;;;;;;10.39;68.07;100116.56;12772004;23;20036;-92
2023/02/22 10:22:48;;;;;;;16.75;9.50;;;;;;;10.69;67.77;100125.53;12833465;23;20021;-91
2023/02/22 10:27:57;;;;;;;16.42;9.10;;;;;;;10.91;67.68;100114.91;12811874;23;20017;-92
2023/02/22 10:33:14;;;;;;;15.50;9.25;;;;;;;11.11;67.44;100115.19;12823143;23;20009;-92
2023/02/22 10:38:19;;;;;;;17.42;10.05;;;;;;;11.05;67.14;100118.63;12782935;23;20035;-92
2023/02/22 10:48:43;;;;;;;21.63;12.65;;;;;;;11.24;66.80;100111.84;12838870;23;20028;-92
2023/02/22 11:04:26;;;;;;;25.23;14.27;;;;;;;11.18;66.48;100104.53;12755228;23;20011;-91
2023/02/22 11:09:49;;;;;;;28.20;15.20;;;;;;;11.45;66.10;100094.94;12783516;23;20028;-63
2023/02/22 11:14:50;;;;;;;24.25;14.95;;;;;;;11.76;65.63;100081.22;12841892;23;20007;-63
2023/02/22 11:19:52;;;;;;;24.63;15.35;;;;;;;11.93;65.48;100078.31;12840896;23;20041;-63
2023/02/22 11:25:06;;;;;;;30.25;16.33;;;;;;;12.01;65.51;100079.03;12840128;23;20071;-63
2023/02/22 11:30:24;;;;;;;24.45;14.95;;;;;;;12.21;65.35;100073.00;12839979;23;20001;-63
2023/02/22 11:35:34;;;;;;;28.38;16.65;;;;;;;12.24;65.05;100062.66;12840054;23;20028;-64
2023/02/22 11:40:35;;;;;;;25.33;15.43;;;;;;;12.32;64.99;100053.59;12839569;23;20048;-63
2023/02/22 11:45:38;;;;;;;26.88;15.05;;;;;;;12.52;64.08;100045.69;12839913;23;20064;-63
2023/02/22 11:51:05;;;;;;;27.52;15.40;;;;;;;12.65;63.90;100039.53;12843140;23;20001;-64
2023/02/22 11:56:14;;;;;;;27.90;15.80;;;;;;;12.72;63.68;100028.78;12853000;23;20048;-63
2023/02/22 12:01:58;;;;;;;28.13;14.90;;;;;;;12.89;63.32;100013.94;12818215;23;20031;-64
2023/02/22 12:07:07;;;;;;;23.60;14.90;;;;;;;13.34;62.53;100005.47;12831637;23;20005;-93
2023/02/22 12:23:18;;;;;;;25.77;14.85;;;;;;;14.16;60.93;100003.50;12843192;23;20025;-91
2023/02/22 12:55:10;;;;;;;23.92;15.30;;;;;;;14.81;56.70;99988.28;12836172;23;20012;-66
2023/02/22 13:00:22;;;;;;;21.35;14.07;;;;;;;14.82;56.36;99983.69;12810811;23;20072;-66
2023/02/22 13:05:23;;;;;;;24.27;14.43;;;;;;;14.99;56.03;99984.06;12838539;23;20068;-65
2023/02/22 13:10:35;;;;;;;25.88;15.00;;;;;;;15.11;55.16;99970.69;12809836;23;20076;-65
2023/02/22 13:15:59;;;;;;;25.67;14.77;;;;;;;15.49;54.71;99969.84;12787937;23;20017;-66
2023/02/22 15:33:22;;;;;;;;;;;;;;;15.25;51.81;99910.00;12688708;23;20005;-65
2023/02/22 15:38:29;;;;;;;26.98;14.25;;;;;;;15.13;52.15;99911.72;12841173;23;19919;-65
2023/02/22 15:43:31;;;;;;;21.98;13.10;;;;;;;14.99;52.58;99908.25;12842281;23;20030;-65
2023/02/22 15:48:34;;;;;;;22.67;14.23;;;;;;;14.95;52.68;99913.28;12839921;23;20044;-65
2023/02/22 15:53:44;;;;;;;22.52;14.35;;;;;;;14.86;52.89;99911.84;12816368;23;20093;-65
2023/02/22 15:58:47;;;;;;;31.27;14.50;;;;;;;14.76;53.14;99915.00;12840296;23;20009;-65
2023/02/22 16:04:16;;;;;;;20.75;13.07;;;;;;;14.64;53.50;99912.13;12840429;23;20084;-65
2023/02/22 16:09:28;;;;;;;25.40;14.93;;;;;;;14.70;53.33;99915.03;12839172;23;20007;-65
2023/02/22 16:14:36;;;;;;;26.77;14.75;;;;;;;14.61;53.70;99919.84;12840937;23;20056;-65
2023/02/22 16:19:40;;;;;;;28.00;14.98;;;;;;;14.44;53.99;99911.34;12840214;23;20036;-65
2023/02/22 16:24:43;;;;;;;28.77;14.43;;;;;;;14.33;54.24;99912.81;12838671;23;20009;-66
2023/02/22 16:30:23;;;;;;;27.67;16.35;;;;;;;14.23;54.33;99913.25;12835069;23;20110;-64
2023/02/22 16:35:27;;;;;;;27.05;14.82;;;;;;;14.28;54.29;99920.75;12666393;23;20024;-66
2023/02/22 17:01:32;;;;;;;22.35;13.18;;;;;;;13.86;55.31;99920.13;12783928;23;20022;-67
2023/02/22 17:06:35;;;;;;;28.13;14.70;;;;;;;13.78;55.38;99915.78;12782549;23;20010;-67
2023/02/22 17:11:37;;;;;;;27.08;14.60;;;;;;;13.58;56.04;99913.06;12781497;23;20024;-67
2023/02/22 17:16:39;;;;;;;26.40;14.30;;;;;;;13.44;56.40;99923.03;12754054;23;20044;-65
2023/02/22 17:21:40;;;;;;;27.88;14.90;;;;;;;13.40;56.68;99926.34;12780663;23;20032;-64
2023/02/22 17:26:41;;;;;;;28.88;14.30;;;;;;;13.39;56.73;99917.44;12737333;23;20040;-60
2023/02/22 17:31:43;;;;;;;27.75;15.02;;;;;;;13.40;56.71;99923.66;12719142;23;20100;-62
2023/02/22 17:36:45;;;;;;;29.45;16.33;;;;;;;13.29;56.58;99925.91;12718008;23;20537;-60
2023/02/22 17:41:53;;;;;;;30.45;16.48;;;;;;;13.25;56.93;99931.88;12721745;23;20036;-60
2023/02/22 17:46:55;;;;;;;27.20;14.25;;;;;;;13.28;56.66;99937.69;12720748;23;20029;-60
2023/02/22 17:51:56;;;;;;;30.27;15.27;;;;;;;13.23;57.03;99937.50;12721719;23;20061;-60
2023/02/22 17:56:59;;;;;;;24.42;14.45;;;;;;;13.32;57.19;99935.47;12692679;23;20033;-61
2023/02/22 18:02:01;;;;;;;29.10;15.45;;;;;;;13.28;57.05;99939.59;12733269;23;20033;-60
2023/02/22 18:07:03;;;;;;;30.98;15.73;;;;;;;13.21;56.78;99934.19;12725688;23;20472;-62
2023/02/22 18:12:04;;;;;;;24.58;13.75;;;;;;;13.13;57.13;99936.22;12728059;23;20021;-60
2023/02/22 18:17:06;;;;;;;29.27;14.27;;;;;;;13.05;57.20;99939.91;12727930;23;20077;-59
2023/02/22 18:22:08;;;;;;;32.33;14.70;;;;;;;12.97;57.60;99940.94;12727618;23;20021;-60
2023/02/22 18:27:10;;;;;;;28.15;14.43;;;;;;;12.88;57.84;99942.16;12725147;23;20029;-59
2023/02/22 18:32:12;;;;;;;27.52;13.85;;;;;;;12.81;57.70;99941.28;12703341;23;20084;-59
2023/02/22 18:37:19;;;;;;;28.83;15.52;;;;;;;12.74;58.44;99933.16;12727161;23;20029;-60
2023/02/22 18:42:29;;;;;;;26.77;15.67;;;;;;;12.65;58.22;99937.06;12732446;23;20432;-60
2023/02/22 18:47:37;;;;;;;29.83;15.85;;;;;;;12.56;58.52;99939.09;12733667;23;20025;-60
2023/02/22 18:52:44;;;;;;;28.15;15.88;;;;;;;12.50;58.69;99940.72;12742537;23;20081;-64
2023/02/22 18:57:47;;;;;;;30.55;15.77;;;;;;;12.43;58.92;99945.22;12731086;23;20029;-60
2023/02/22 19:02:49;;;;;;;30.27;15.85;;;;;;;12.39;59.25;99948.53;12735010;23;20017;-61
2023/02/22 19:07:50;;;;;;;31.45;16.15;;;;;;;12.34;59.33;99949.09;12734104;23;20032;-59
2023/02/22 19:12:52;;;;;;;24.88;14.30;;;;;;;12.28;59.68;99937.28;12730658;23;20026;-61
2023/02/22 19:17:54;;;;;;;30.15;16.02;;;;;;;12.27;59.43;99940.16;12724849;23;20022;-59
2023/02/22 19:22:56;;;;;;;28.23;15.77;;;;;;;12.23;59.77;99939.72;12692765;23;20064;-62
2023/02/22 19:27:57;;;;;;;29.10;14.60;;;;;;;12.18;60.00;99944.03;12695095;23;20662;-61
2023/02/22 19:33:01;;;;;;;30.52;16.02;;;;;;;12.09;60.18;99938.78;12719662;23;20029;-64
2023/02/22 19:38:03;;;;;;;26.67;16.55;;;;;;;12.06;59.95;99939.16;12717465;23;20029;-59
2023/02/22 19:43:04;;;;;;;29.42;15.60;;;;;;;12.00;60.11;99931.88;12721388;23;20018;-61
2023/02/22 19:48:05;;;;;;;30.70;16.25;;;;;;;11.91;60.40;99935.75;12722494;23;20088;-59
2023/02/22 19:53:12;;;;;;;28.02;16.13;;;;;;;11.82;61.04;99934.19;12725139;23;20084;-59
2023/02/22 19:58:14;;;;;;;30.25;16.67;;;;;;;11.71;61.15;99941.78;12723553;23;20096;-59
2023/02/22 20:03:22;;;;;;;28.60;15.35;;;;;;;11.62;61.41;99940.22;12723567;23;20014;-59
2023/02/22 20:08:25;;;;;;;29.42;16.90;;;;;;;11.56;61.25;99945.56;12724992;23;20036;-61
2023/02/22 20:13:26;;;;;;;33.50;16.52;;;;;;;11.48;61.39;99944.66;12698284;23;20057;-59
2023/02/22 20:18:29;;;;;;;33.55;17.15;;;;;;;11.45;61.41;99954.97;12724348;23;20069;-59
2023/02/22 20:23:30;;;;;;;33.05;17.25;;;;;;;11.42;61.80;99945.44;12724215;23;20032;-61
2023/02/22 20:28:32;;;;;;;30.58;17.65;;;;;;;11.40;61.76;99949.34;12724228;23;20021;-60
2023/02/22 20:33:34;;;;;;;32.70;19.30;;;;;;;11.36;61.82;99953.44;12723957;23;20021;-60
2023/02/22 20:38:36;;;;;;;34.35;18.70;;;;;;;11.28;62.21;99954.41;12723994;23;20025;-59
2023/02/22 20:43:38;;;;;;;36.90;18.58;;;;;;;11.24;62.02;99958.50;12723471;23;20032;-62
2023/02/22 20:48:40;;;;;;;31.83;18.33;;;;;;;11.16;62.29;99959.44;12725130;23;20040;-62
2023/02/22 20:53:43;;;;;;;35.67;18.55;;;;;;;11.13;62.61;99962.50;12726843;23;20081;-61
2023/02/22 20:58:45;;;;;;;36.28;16.45;;;;;;;11.09;62.77;99963.91;12725090;23;20026;-59
2023/02/22 21:03:47;;;;;;;42.97;18.08;;;;;;;11.00;62.95;99965.88;12728179;23;20021;-60
2023/02/22 21:08:55;;;;;;;35.88;19.77;;;;;;;10.91;62.92;99964.31;12719710;23;20468;-63
2023/02/22 21:13:58;;;;;;;41.63;20.27;;;;;;;10.84;63.15;99966.06;12722266;23;20458;-60
2023/02/22 21:19:03;;;;;;;44.08;20.60;;;;;;;10.83;63.31;99972.47;12723586;23;20033;-62
2023/02/22 21:24:04;;;;;;;41.17;20.05;;;;;;;10.82;63.28;99976.16;12724375;23;20021;-60
2023/02/22 21:29:06;;;;;;;39.17;20.48;;;;;;;10.78;63.61;99978.41;12726597;23;20081;-59
2023/02/22 21:34:11;;;;;;;38.65;21.35;;;;;;;10.77;63.87;99968.69;12725873;23;20025;-61
2023/02/22 21:39:16;;;;;;;43.92;21.17;;;;;;;10.75;63.53;99967.19;12705886;23;20044;-60
2023/02/22 21:44:19;;;;;;;46.85;21.90;;;;;;;10.74;63.64;99970.91;12727381;23;20105;-65
2023/02/22 21:49:21;;;;;;;40.80;20.70;;;;;;;10.76;63.95;99975.06;12726184;23;20076;-60
2023/02/22 21:54:23;;;;;;;44.03;21.65;;;;;;;10.75;63.72;99970.72;12726004;23;20120;-61
2023/02/22 21:59:24;;;;;;;38.83;19.95;;;;;;;10.77;63.83;99967.84;12725582;23;20037;-58
2023/02/22 22:04:30;;;;;;;46.08;21.00;;;;;;;10.80;63.93;99968.31;12724100;23;20025;-58
2023/02/22 22:09:34;;;;;;;43.35;22.75;;;;;;;10.81;64.00;99964.59;12724804;23;20018;-60
2023/02/22 22:14:36;;;;;;;39.00;19.98;;;;;;;10.83;63.88;99957.16;12726142;23;20150;-62
2023/02/22 22:19:38;;;;;;;38.38;20.67;;;;;;;10.85;64.16;99954.28;12725645;23;20076;-61
2023/02/22 22:24:44;;;;;;;35.42;19.77;;;;;;;10.73;64.53;99953.94;12724929;23;20018;-61
2023/02/22 22:29:46;;;;;;;38.47;20.67;;;;;;;10.67;64.33;99955.50;12725119;23;20025;-60
2023/02/22 22:34:48;;;;;;;45.83;22.00;;;;;;;10.65;64.62;99954.88;12724013;23;20089;-60
2023/02/22 22:39:49;;;;;;;39.17;21.05;;;;;;;10.73;64.82;99955.81;12724398;23;20228;-60
2023/02/22 22:44:50;;;;;;;38.05;20.25;;;;;;;10.80;64.53;99954.88;12724916;23;20060;-63
2023/02/22 22:49:58;;;;;;;46.45;21.50;;;;;;;10.89;64.76;99953.72;12723925;23;20453;-61
2023/02/22 22:55:00;;;;;;;;;;;;;;;10.94;64.09;99955.00;12725073;23;20021;-60
2023/02/22 23:00:24;;;;;;;37.03;18.52;;;;;;;10.98;64.23;99948.22;12723237;23;19977;-61
2023/02/22 23:05:27;;;;;;;41.95;20.25;;;;;;;11.02;64.14;99955.75;12712578;23;20096;-60
2023/02/22 23:10:30;;;;;;;38.75;19.42;;;;;;;11.05;64.59;99957.22;12723080;23;20029;-60
2023/02/22 23:15:32;;;;;;;33.25;19.60;;;;;;;11.11;64.41;99959.16;12723027;23;20018;-62
2023/02/22 23:20:37;;;;;;;41.75;20.27;;;;;;;11.16;64.23;99955.88;12722641;23;20026;-63
2023/02/22 23:25:40;;;;;;;36.95;19.83;;;;;;;11.20;64.63;99958.03;12724799;23;20024;-60
2023/02/22 23:30:42;;;;;;;37.97;19.63;;;;;;;11.24;64.46;99961.19;12722888;23;20024;-60
2023/02/22 23:35:47;;;;;;;37.03;20.67;;;;;;;11.26;64.54;99957.28;12696185;23;20243;-60
2023/02/22 23:40:52;;;;;;;39.80;21.35;;;;;;;11.29;64.71;99951.53;12720737;23;20022;-61
2023/02/22 23:45:56;;;;;;;39.67;21.38;;;;;;;11.37;64.84;99955.91;12721108;23;20021;-60
2023/02/22 23:50:59;;;;;;;46.45;22.45;;;;;;;11.39;64.78;99948.50;12721096;23;20021;-60
2023/02/22 23:56:01;;;;;;;38.10;21.27;;;;;;;11.46;64.99;99949.41;12721966;23;20022;-63
